sensor_id;sensor_type;location;lat;lon;timestamp;pressure;altitude;pressure_sealevel;temperature;humidity
58598;BME280;64549;46.910;16.844;2022-10-29T00:02:32;100680.00;;;12.45;100.00
58598;BME280;64549;46.910;16.844;2022-10-29T00:07:33;100674.97;;;12.42;100.00
58598;BME280;64549;46.910;16.844;2022-10-29T00:12:33;100682.47;;;12.37;100.00
58598;BME280;64549;46.910;16.844;2022-10-29T00:17:34;100689.53;;;12.38;100.00
58598;BME280;64549;46.910;16.844;2022-10-29T00:22:34;100682.38;;;12.27;100.00
58598;BME280;64549;46.910;16.844;2022-10-29T00:27:35;100681.03;;;12.32;100.00
58598;BME280;64549;46.910;16.844;2022-10-29T00:32:35;100689.16;;;12.31;100.00
58598;BME280;64549;46.910;16.844;2022-10-29T00:37:39;100694.97;;;12.36;100.00
58598;BME280;64549;46.910;16.844;2022-10-29T00:42:40;100680.34;;;12.30;100.00
58598;BME280;64549;46.910;16.844;2022-10-29T00:47:40;100677.66;;;12.30;100.00
58598;BME280;64549;46.910;16.844;2022-10-29T00:52:44;100678.16;;;12.24;100.00
58598;BME280;64549;46.910;16.844;2022-10-29T00:57:51;100670.31;;;12.11;100.00
58598;BME280;64549;46.910;16.844;2022-10-29T01:02:53;100662.72;;;12.06;100.00
58598;BME280;64549;46.910;16.844;2022-10-29T01:07:54;100662.06;;;12.03;100.00
58598;BME280;64549;46.910;16.844;2022-10-29T01:13:14;100656.16;;;12.11;100.00
58598;BME280;64549;46.910;16.844;2022-10-29T01:24:12;100655.72;;;12.27;100.00
58598;BME280;64549;46.910;16.844;2022-10-29T01:40:25;100647.94;;;12.35;100.00
58598;BME280;64549;46.910;16.844;2022-10-29T01:45:35;100643.00;;;12.30;100.00
58598;BME280;64549;46.910;16.844;2022-10-29T01:50:41;100644.22;;;12.26;100.00
58598;BME280;64549;46.910;16.844;2022-10-29T01:55:43;100633.47;;;12.16;100.00
58598;BME280;64549;46.910;16.844;2022-10-29T02:00:58;100631.31;;;11.99;100.00
58598;BME280;64549;46.910;16.844;2022-10-29T02:11:26;100624.22;;;11.88;100.00
58598;BME280;64549;46.910;16.844;2022-10-29T02:16:33;100619.72;;;11.88;100.00
58598;BME280;64549;46.910;16.844;2022-10-29T02:21:33;100626.56;;;12.02;100.00
58598;BME280;64549;46.910;16.844;2022-10-29T02:26:34;100627.78;;;12.10;100.00
58598;BME280;64549;46.910;16.844;2022-10-29T02:31:34;100621.22;;;12.14;100.00
58598;BME280;64549;46.910;16.844;2022-10-29T02:36:35;100618.44;;;12.15;100.00
58598;BME280;64549;46.910;16.844;2022-10-29T02:41:35;100617.19;;;12.19;100.00
58598;BME280;64549;46.910;16.844;2022-10-29T02:46:36;100618.06;;;12.20;100.00
58598;BME280;64549;46.910;16.844;2022-10-29T02:51:38;100618.91;;;12.20;100.00
58598;BME280;64549;46.910;16.844;2022-10-29T02:56:39;100610.19;;;12.18;100.00
58598;BME280;64549;46.910;16.844;2022-10-29T03:01:39;100607.06;;;12.13;100.00
58598;BME280;64549;46.910;16.844;2022-10-29T03:06:40;100610.09;;;12.09;100.00
58598;BME280;64549;46.910;16.844;2022-10-29T03:11:40;100603.78;;;12.10;100.00
58598;BME280;64549;46.910;16.844;2022-10-29T03:16:40;100602.72;;;12.12;100.00
58598;BME280;64549;46.910;16.844;2022-10-29T03:21:41;100600.88;;;12.13;100.00
58598;BME280;64549;46.910;16.844;2022-10-29T03:26:41;100600.63;;;12.16;100.00
58598;BME280;64549;46.910;16.844;2022-10-29T03:31:42;100604.00;;;12.18;100.00
58598;BME280;64549;46.910;16.844;2022-10-29T03:36:42;100598.34;;;12.11;100.00
58598;BME280;64549;46.910;16.844;2022-10-29T03:41:43;100593.88;;;12.12;100.00
58598;BME280;64549;46.910;16.844;2022-10-29T03:46:49;100595.78;;;12.10;100.00
58598;BME280;64549;46.910;16.844;2022-10-29T03:51:50;100590.94;;;12.15;100.00
58598;BME280;64549;46.910;16.844;2022-10-29T03:56:50;100593.75;;;12.13;100.00
58598;BME280;64549;46.910;16.844;2022-10-29T04:01:50;100587.66;;;12.11;100.00
58598;BME280;64549;46.910;16.844;2022-10-29T04:06:51;100592.78;;;12.03;100.00
58598;BME280;64549;46.910;16.844;2022-10-29T04:11:51;100597.19;;;11.81;100.00
58598;BME280;64549;46.910;16.844;2022-10-29T04:16:52;100602.81;;;11.78;100.00
58598;BME280;64549;46.910;16.844;2022-10-29T04:21:52;100607.03;;;11.80;100.00
58598;BME280;64549;46.910;16.844;2022-10-29T04:26:52;100610.88;;;11.88;100.00
58598;BME280;64549;46.910;16.844;2022-10-29T04:31:53;100614.75;;;11.95;100.00
58598;BME280;64549;46.910;16.844;2022-10-29T04:36:53;100615.06;;;12.02;100.00
58598;BME280;64549;46.910;16.844;2022-10-29T04:41:54;100608.75;;;12.03;100.00
58598;BME280;64549;46.910;16.844;2022-10-29T04:46:54;100609.88;;;12.00;100.00
58598;BME280;64549;46.910;16.844;2022-10-29T04:51:55;100613.41;;;12.01;100.00
58598;BME280;64549;46.910;16.844;2022-10-29T04:56:55;100608.19;;;11.99;100.00
58598;BME280;64549;46.910;16.844;2022-10-29T05:01:56;100606.97;;;12.03;100.00
58598;BME280;64549;46.910;16.844;2022-10-29T05:06:56;100608.06;;;12.01;100.00
58598;BME280;64549;46.910;16.844;2022-10-29T05:11:56;100604.66;;;11.99;100.00
58598;BME280;64549;46.910;16.844;2022-10-29T05:16:57;100607.09;;;12.02;100.00
58598;BME280;64549;46.910;16.844;2022-10-29T05:21:57;100608.06;;;12.01;100.00
58598;BME280;64549;46.910;16.844;2022-10-29T05:26:58;100597.97;;;12.04;100.00
58598;BME280;64549;46.910;16.844;2022-10-29T05:31:58;100588.41;;;12.02;100.00
58598;BME280;64549;46.910;16.844;2022-10-29T05:36:59;100597.19;;;11.81;100.00
58598;BME280;64549;46.910;16.844;2022-10-29T05:41:59;100593.50;;;11.72;100.00
58598;BME280;64549;46.910;16.844;2022-10-29T05:47:00;100618.50;;;11.81;100.00
58598;BME280;64549;46.910;16.844;2022-10-29T05:52:00;100612.13;;;11.84;100.00
58598;BME280;64549;46.910;16.844;2022-10-29T05:57:00;100619.94;;;11.85;100.00
58598;BME280;64549;46.910;16.844;2022-10-29T06:02:01;100626.75;;;11.89;100.00
58598;BME280;64549;46.910;16.844;2022-10-29T06:07:02;100617.16;;;11.87;100.00
58598;BME280;64549;46.910;16.844;2022-10-29T06:12:02;100612.09;;;11.95;100.00
58598;BME280;64549;46.910;16.844;2022-10-29T06:17:03;100616.75;;;12.03;100.00
58598;BME280;64549;46.910;16.844;2022-10-29T06:22:03;100606.59;;;11.97;100.00
58598;BME280;64549;46.910;16.844;2022-10-29T06:27:04;100612.91;;;11.95;100.00
58598;BME280;64549;46.910;16.844;2022-10-29T06:32:04;100612.53;;;12.00;100.00
58598;BME280;64549;46.910;16.844;2022-10-29T06:37:05;100609.25;;;12.08;100.00
58598;BME280;64549;46.910;16.844;2022-10-29T06:42:05;100613.22;;;12.14;100.00
58598;BME280;64549;46.910;16.844;2022-10-29T06:47:05;100604.81;;;11.86;100.00
58598;BME280;64549;46.910;16.844;2022-10-29T06:52:06;100612.78;;;11.97;100.00
58598;BME280;64549;46.910;16.844;2022-10-29T06:57:06;100621.50;;;11.99;100.00
58598;BME280;64549;46.910;16.844;2022-10-29T07:02:09;100625.13;;;11.98;100.00
58598;BME280;64549;46.910;16.844;2022-10-29T07:07:11;100625.50;;;12.05;100.00
58598;BME280;64549;46.910;16.844;2022-10-29T07:12:12;100628.84;;;12.18;100.00
58598;BME280;64549;46.910;16.844;2022-10-29T07:17:12;100636.72;;;12.20;100.00
58598;BME280;64549;46.910;16.844;2022-10-29T07:22:13;100654.38;;;12.32;100.00
58598;BME280;64549;46.910;16.844;2022-10-29T07:27:13;100648.72;;;12.47;100.00
58598;BME280;64549;46.910;16.844;2022-10-29T07:32:14;100664.56;;;12.60;100.00
58598;BME280;64549;46.910;16.844;2022-10-29T07:37:14;100665.13;;;12.64;100.00
58598;BME280;64549;46.910;16.844;2022-10-29T07:42:15;100674.56;;;12.68;100.00
58598;BME280;64549;46.910;16.844;2022-10-29T07:47:15;100679.84;;;12.79;100.00
58598;BME280;64549;46.910;16.844;2022-10-29T07:52:15;100680.19;;;12.86;100.00
58598;BME280;64549;46.910;16.844;2022-10-29T07:57:16;100683.06;;;12.94;100.00
58598;BME280;64549;46.910;16.844;2022-10-29T08:02:17;100673.84;;;13.08;100.00
58598;BME280;64549;46.910;16.844;2022-10-29T08:07:17;100670.38;;;13.18;100.00
58598;BME280;64549;46.910;16.844;2022-10-29T08:12:17;100669.84;;;13.24;100.00
58598;BME280;64549;46.910;16.844;2022-10-29T08:17:18;100674.81;;;13.29;100.00
58598;BME280;64549;46.910;16.844;2022-10-29T08:22:18;100662.78;;;13.13;100.00
58598;BME280;64549;46.910;16.844;2022-10-29T08:27:19;100649.38;;;13.34;100.00
58598;BME280;64549;46.910;16.844;2022-10-29T08:32:19;100652.09;;;13.44;100.00
58598;BME280;64549;46.910;16.844;2022-10-29T08:37:20;100645.38;;;13.50;100.00
58598;BME280;64549;46.910;16.844;2022-10-29T08:47:24;100624.47;;;13.34;100.00
58598;BME280;64549;46.910;16.844;2022-10-29T08:52:29;100644.72;;;13.36;100.00
58598;BME280;64549;46.910;16.844;2022-10-29T08:57:37;100646.22;;;13.51;100.00
58598;BME280;64549;46.910;16.844;2022-10-29T09:02:40;100637.56;;;13.68;100.00
58598;BME280;64549;46.910;16.844;2022-10-29T09:30:03;100640.50;;;13.34;100.00
58598;BME280;64549;46.910;16.844;2022-10-29T09:35:13;100649.94;;;13.38;100.00
58598;BME280;64549;46.910;16.844;2022-10-29T09:40:32;100642.47;;;13.63;100.00
58598;BME280;64549;46.910;16.844;2022-10-29T09:50:56;100626.47;;;13.73;100.00
58598;BME280;64549;46.910;16.844;2022-10-29T09:55:58;100630.97;;;13.82;100.00
58598;BME280;64549;46.910;16.844;2022-10-29T10:00:59;100629.44;;;13.90;100.00
58598;BME280;64549;46.910;16.844;2022-10-29T10:06:06;100618.88;;;13.88;100.00
58598;BME280;64549;46.910;16.844;2022-10-29T10:11:07;100614.66;;;14.25;100.00
58598;BME280;64549;46.910;16.844;2022-10-29T10:16:27;100607.06;;;14.50;100.00
58598;BME280;64549;46.910;16.844;2022-10-29T10:21:31;100609.31;;;14.05;100.00
58598;BME280;64549;46.910;16.844;2022-10-29T10:26:41;100592.13;;;13.78;100.00
58598;BME280;64549;46.910;16.844;2022-10-29T10:31:47;100593.69;;;14.00;100.00
58598;BME280;64549;46.910;16.844;2022-10-29T10:37:04;100580.84;;;14.54;100.00
58598;BME280;64549;46.910;16.844;2022-10-29T10:42:24;100591.53;;;14.54;100.00
58598;BME280;64549;46.910;16.844;2022-10-29T10:47:29;100594.38;;;15.10;100.00
58598;BME280;64549;46.910;16.844;2022-10-29T10:52:31;100585.97;;;15.51;100.00
58598;BME280;64549;46.910;16.844;2022-10-29T10:57:35;100571.06;;;15.85;100.00
58598;BME280;64549;46.910;16.844;2022-10-29T11:08:12;100581.19;;;16.27;100.00
58598;BME280;64549;46.910;16.844;2022-10-29T11:13:19;100566.47;;;16.32;100.00
58598;BME280;64549;46.910;16.844;2022-10-29T11:18:29;100557.44;;;16.59;100.00
58598;BME280;64549;46.910;16.844;2022-10-29T11:28:48;100534.47;;;16.38;100.00
58598;BME280;64549;46.910;16.844;2022-10-29T11:39:21;100515.63;;;16.91;100.00
58598;BME280;64549;46.910;16.844;2022-10-29T11:44:31;100507.19;;;17.21;100.00
58598;BME280;64549;46.910;16.844;2022-10-29T12:21:15;100485.75;;;17.71;100.00
58598;BME280;64549;46.910;16.844;2022-10-29T12:26:25;100478.88;;;17.68;100.00
58598;BME280;64549;46.910;16.844;2022-10-29T12:42:33;100481.41;;;17.53;100.00
58598;BME280;64549;46.910;16.844;2022-10-29T12:53:05;100458.50;;;17.41;100.00
58598;BME280;64549;46.910;16.844;2022-10-29T13:08:55;100437.53;;;17.44;100.00
58598;BME280;64549;46.910;16.844;2022-10-29T13:14:00;100434.47;;;17.14;100.00
58598;BME280;64549;46.910;16.844;2022-10-29T13:19:13;100435.66;;;17.28;100.00
58598;BME280;64549;46.910;16.844;2022-10-29T13:24:15;100430.28;;;17.37;100.00
58598;BME280;64549;46.910;16.844;2022-10-29T13:29:46;100438.34;;;17.28;100.00
58598;BME280;64549;46.910;16.844;2022-10-29T13:35:40;100444.88;;;17.17;100.00
58598;BME280;64549;46.910;16.844;2022-10-29T13:45:21;100440.97;;;17.03;100.00
58598;BME280;64549;46.910;16.844;2022-10-29T13:50:22;100440.81;;;17.05;100.00
58598;BME280;64549;46.910;16.844;2022-10-29T13:55:24;100438.59;;;17.00;100.00
58598;BME280;64549;46.910;16.844;2022-10-29T14:00:26;100432.34;;;16.83;100.00
58598;BME280;64549;46.910;16.844;2022-10-29T14:05:33;100432.91;;;16.60;100.00
58598;BME280;64549;46.910;16.844;2022-10-29T14:21:16;100428.88;;;15.76;100.00
58598;BME280;64549;46.910;16.844;2022-10-29T14:26:17;100431.41;;;15.78;100.00
58598;BME280;64549;46.910;16.844;2022-10-29T14:31:21;100425.13;;;15.69;100.00
58598;BME280;64549;46.910;16.844;2022-10-29T14:36:41;100418.88;;;15.60;100.00
58598;BME280;64549;46.910;16.844;2022-10-29T14:41:43;100407.81;;;15.37;100.00
58598;BME280;64549;46.910;16.844;2022-10-29T14:47:07;100411.53;;;15.44;100.00
58598;BME280;64549;46.910;16.844;2022-10-29T14:57:34;100405.13;;;15.37;100.00
58598;BME280;64549;46.910;16.844;2022-10-29T15:02:39;100390.34;;;15.33;100.00
58598;BME280;64549;46.910;16.844;2022-10-29T15:07:41;100389.81;;;15.11;100.00
58598;BME280;64549;46.910;16.844;2022-10-29T15:12:44;100390.47;;;14.95;100.00
58598;BME280;64549;46.910;16.844;2022-10-29T15:22:55;100403.25;;;14.83;100.00
58598;BME280;64549;46.910;16.844;2022-10-29T15:27:56;100407.41;;;14.67;100.00
58598;BME280;64549;46.910;16.844;2022-10-29T15:32:59;100408.72;;;14.53;100.00
58598;BME280;64549;46.910;16.844;2022-10-29T15:38:00;100419.78;;;14.40;100.00
58598;BME280;64549;46.910;16.844;2022-10-29T15:43:26;100396.03;;;14.27;100.00
58598;BME280;64549;46.910;16.844;2022-10-29T15:48:35;100405.19;;;14.15;100.00
58598;BME280;64549;46.910;16.844;2022-10-29T15:53:36;100401.59;;;14.06;100.00
58598;BME280;64549;46.910;16.844;2022-10-29T15:58:37;100381.19;;;13.95;100.00
58598;BME280;64549;46.910;16.844;2022-10-29T16:03:38;100373.19;;;13.85;100.00
58598;BME280;64549;46.910;16.844;2022-10-29T16:08:53;100366.47;;;13.81;100.00
58598;BME280;64549;46.910;16.844;2022-10-29T16:13:54;100364.66;;;13.71;100.00
58598;BME280;64549;46.910;16.844;2022-10-29T16:18:55;100400.09;;;13.64;100.00
58598;BME280;64549;46.910;16.844;2022-10-29T16:23:55;100396.31;;;13.56;100.00
58598;BME280;64549;46.910;16.844;2022-10-29T16:28:56;100385.22;;;13.51;100.00
58598;BME280;64549;46.910;16.844;2022-10-29T16:33:58;100408.13;;;13.44;100.00
58598;BME280;64549;46.910;16.844;2022-10-29T16:38:59;100417.94;;;13.43;100.00
58598;BME280;64549;46.910;16.844;2022-10-29T16:43:59;100430.63;;;13.41;100.00
58598;BME280;64549;46.910;16.844;2022-10-29T16:49:00;100422.59;;;13.41;100.00
58598;BME280;64549;46.910;16.844;2022-10-29T16:54:00;100422.47;;;13.43;100.00
58598;BME280;64549;46.910;16.844;2022-10-29T16:59:01;100425.28;;;13.41;100.00
58598;BME280;64549;46.910;16.844;2022-10-29T17:04:01;100428.22;;;13.28;100.00
58598;BME280;64549;46.910;16.844;2022-10-29T17:09:04;100418.81;;;13.34;100.00
58598;BME280;64549;46.910;16.844;2022-10-29T17:14:05;100422.88;;;13.28;100.00
58598;BME280;64549;46.910;16.844;2022-10-29T17:19:06;100425.81;;;13.25;100.00
58598;BME280;64549;46.910;16.844;2022-10-29T17:24:06;100428.94;;;13.20;100.00
58598;BME280;64549;46.910;16.844;2022-10-29T17:29:07;100424.00;;;13.16;100.00
58598;BME280;64549;46.910;16.844;2022-10-29T17:34:07;100421.59;;;13.13;100.00
58598;BME280;64549;46.910;16.844;2022-10-29T17:39:10;100429.59;;;13.03;100.00
58598;BME280;64549;46.910;16.844;2022-10-29T17:44:11;100431.72;;;12.99;100.00
58598;BME280;64549;46.910;16.844;2022-10-29T17:49:12;100449.28;;;13.02;100.00
58598;BME280;64549;46.910;16.844;2022-10-29T17:54:21;100442.91;;;12.93;100.00
58598;BME280;64549;46.910;16.844;2022-10-29T17:59:22;100447.13;;;12.86;100.00
58598;BME280;64549;46.910;16.844;2022-10-29T18:04:28;100442.44;;;12.78;100.00
58598;BME280;64549;46.910;16.844;2022-10-29T18:09:28;100436.25;;;12.67;100.00
58598;BME280;64549;46.910;16.844;2022-10-29T18:14:28;100443.91;;;12.51;100.00
58598;BME280;64549;46.910;16.844;2022-10-29T18:19:29;100436.69;;;12.41;100.00
58598;BME280;64549;46.910;16.844;2022-10-29T18:24:29;100428.13;;;12.38;100.00
58598;BME280;64549;46.910;16.844;2022-10-29T18:29:30;100430.75;;;12.28;100.00
58598;BME280;64549;46.910;16.844;2022-10-29T18:34:31;100424.97;;;12.23;100.00
58598;BME280;64549;46.910;16.844;2022-10-29T18:39:33;100410.34;;;12.17;100.00
58598;BME280;64549;46.910;16.844;2022-10-29T18:44:33;100400.22;;;12.11;100.00
58598;BME280;64549;46.910;16.844;2022-10-29T18:49:34;100405.81;;;12.07;100.00
58598;BME280;64549;46.910;16.844;2022-10-29T18:54:38;100391.03;;;12.03;100.00
58598;BME280;64549;46.910;16.844;2022-10-29T18:59:39;100402.66;;;12.02;100.00
58598;BME280;64549;46.910;16.844;2022-10-29T19:04:40;100398.44;;;12.00;100.00
58598;BME280;64549;46.910;16.844;2022-10-29T19:09:40;100410.06;;;11.99;100.00
58598;BME280;64549;46.910;16.844;2022-10-29T19:14:41;100418.22;;;12.18;100.00
58598;BME280;64549;46.910;16.844;2022-10-29T19:19:41;100408.28;;;12.20;100.00
58598;BME280;64549;46.910;16.844;2022-10-29T19:24:41;100406.69;;;12.18;100.00
58598;BME280;64549;46.910;16.844;2022-10-29T19:29:42;100402.09;;;12.20;100.00
58598;BME280;64549;46.910;16.844;2022-10-29T19:34:42;100404.44;;;12.13;100.00
58598;BME280;64549;46.910;16.844;2022-10-29T19:39:44;100405.25;;;12.14;100.00
58598;BME280;64549;46.910;16.844;2022-10-29T19:44:44;100402.03;;;12.10;100.00
58598;BME280;64549;46.910;16.844;2022-10-29T19:49:45;100396.75;;;11.99;100.00
58598;BME280;64549;46.910;16.844;2022-10-29T19:54:45;100383.81;;;11.94;100.00
58598;BME280;64549;46.910;16.844;2022-10-29T19:59:45;100388.09;;;11.85;100.00
58598;BME280;64549;46.910;16.844;2022-10-29T20:04:46;100377.97;;;11.79;100.00
58598;BME280;64549;46.910;16.844;2022-10-29T20:09:46;100377.81;;;11.71;100.00
58598;BME280;64549;46.910;16.844;2022-10-29T20:14:47;100379.41;;;11.62;100.00
58598;BME280;64549;46.910;16.844;2022-10-29T20:19:47;100368.44;;;11.55;100.00
58598;BME280;64549;46.910;16.844;2022-10-29T20:24:48;100374.66;;;11.44;100.00
58598;BME280;64549;46.910;16.844;2022-10-29T20:29:48;100377.91;;;11.26;100.00
58598;BME280;64549;46.910;16.844;2022-10-29T20:34:52;100377.09;;;11.14;100.00
58598;BME280;64549;46.910;16.844;2022-10-29T20:39:52;100389.00;;;10.99;100.00
58598;BME280;64549;46.910;16.844;2022-10-29T20:44:53;100389.03;;;10.87;100.00
58598;BME280;64549;46.910;16.844;2022-10-29T20:49:53;100385.56;;;10.75;100.00
58598;BME280;64549;46.910;16.844;2022-10-29T20:54:53;100389.47;;;10.60;100.00
58598;BME280;64549;46.910;16.844;2022-10-29T20:59:54;100387.88;;;10.46;100.00
58598;BME280;64549;46.910;16.844;2022-10-29T21:04:54;100384.47;;;10.44;100.00
58598;BME280;64549;46.910;16.844;2022-10-29T21:09:55;100385.19;;;10.34;100.00
58598;BME280;64549;46.910;16.844;2022-10-29T21:14:55;100382.28;;;10.26;100.00
58598;BME280;64549;46.910;16.844;2022-10-29T21:19:56;100381.34;;;10.15;100.00
58598;BME280;64549;46.910;16.844;2022-10-29T21:24:56;100386.28;;;10.09;100.00
58598;BME280;64549;46.910;16.844;2022-10-29T21:29:56;100385.69;;;10.17;100.00
58598;BME280;64549;46.910;16.844;2022-10-29T21:34:57;100380.38;;;10.28;100.00
58598;BME280;64549;46.910;16.844;2022-10-29T21:39:57;100383.53;;;10.45;100.00
58598;BME280;64549;46.910;16.844;2022-10-29T21:44:58;100389.31;;;10.61;100.00
58598;BME280;64549;46.910;16.844;2022-10-29T21:49:58;100387.81;;;10.80;100.00
58598;BME280;64549;46.910;16.844;2022-10-29T21:54:58;100381.03;;;10.87;100.00
58598;BME280;64549;46.910;16.844;2022-10-29T21:59:59;100378.31;;;11.10;100.00
58598;BME280;64549;46.910;16.844;2022-10-29T22:04:59;100370.88;;;11.25;100.00
58598;BME280;64549;46.910;16.844;2022-10-29T22:10:00;100374.22;;;11.39;100.00
58598;BME280;64549;46.910;16.844;2022-10-29T22:15:01;100365.91;;;11.53;100.00
58598;BME280;64549;46.910;16.844;2022-10-29T22:20:03;100359.53;;;11.66;100.00
58598;BME280;64549;46.910;16.844;2022-10-29T22:25:05;100367.59;;;11.76;100.00
58598;BME280;64549;46.910;16.844;2022-10-29T22:30:05;100361.28;;;11.77;100.00
58598;BME280;64549;46.910;16.844;2022-10-29T22:35:06;100362.69;;;11.81;100.00
58598;BME280;64549;46.910;16.844;2022-10-29T22:40:07;100362.50;;;11.73;100.00
58598;BME280;64549;46.910;16.844;2022-10-29T22:45:08;100363.69;;;11.80;100.00
58598;BME280;64549;46.910;16.844;2022-10-29T22:50:09;100353.94;;;11.90;100.00
58598;BME280;64549;46.910;16.844;2022-10-29T22:55:09;100345.59;;;12.05;100.00
58598;BME280;64549;46.910;16.844;2022-10-29T23:00:10;100346.31;;;12.07;100.00
58598;BME280;64549;46.910;16.844;2022-10-29T23:05:11;100352.50;;;12.07;100.00
58598;BME280;64549;46.910;16.844;2022-10-29T23:10:11;100362.03;;;12.10;100.00
58598;BME280;64549;46.910;16.844;2022-10-29T23:15:12;100356.84;;;12.09;100.00
58598;BME280;64549;46.910;16.844;2022-10-29T23:20:13;100348.44;;;12.13;100.00
58598;BME280;64549;46.910;16.844;2022-10-29T23:25:13;100334.56;;;12.19;100.00
58598;BME280;64549;46.910;16.844;2022-10-29T23:30:14;100338.09;;;12.20;100.00
58598;BME280;64549;46.910;16.844;2022-10-29T23:35:14;100343.56;;;12.18;100.00
58598;BME280;64549;46.910;16.844;2022-10-29T23:40:14;100353.78;;;12.13;100.00
58598;BME280;64549;46.910;16.844;2022-10-29T23:45:15;100348.16;;;12.06;100.00
58598;BME280;64549;46.910;16.844;2022-10-29T23:50:16;100339.78;;;12.21;100.00
58598;BME280;64549;46.910;16.844;2022-10-29T23:55:19;100339.38;;;12.26;100.00
